Augusta, Georgia
Current Conditions -  °F | °C
As of 10:53 PM on Wednesday 22 Oct 2014 (Local Time) from KDNL Reporting Station
Clear Clear  
Wind Chill: 55°   Ceiling: Unl
Heat Index: 55°   Visibility: 10mi
Dew Point: 44°   Wind: 7mph
Humidity: 67%   Direction: 350°N
Pressure: 30.11"   Gusts: NA
Location:  33.48°N, 81.97°W
Report Text: KDNL 230253Z AUTO 35006KT 10SM CLR 13/07 A3011 RMK AO2 SLP193 T01280067 53015
Loading
Personal Weather Stations






























Interactive Weather Map
Tropical Storm Tracking
New forecast layout! Learn more

10-Day Weather Forecast

Advertisements
Track Severe Weather on mobile